sensor_id;sensor_type;location;lat;lon;timestamp;P1;durP1;ratioP1;P2;durP2;ratioP2
5696;SDS011;2873;50.966;7.210;2022-11-20T00:00:23;17.05;;;11.40;;
5696;SDS011;2873;50.966;7.210;2022-11-20T00:02:49;18.10;;;12.13;;
5696;SDS011;2873;50.966;7.210;2022-11-20T00:05:14;30.83;;;15.98;;
5696;SDS011;2873;50.966;7.210;2022-11-20T00:07:40;53.30;;;24.20;;
5696;SDS011;2873;50.966;7.210;2022-11-20T00:10:06;51.20;;;22.75;;
5696;SDS011;2873;50.966;7.210;2022-11-20T00:12:32;87.90;;;35.03;;
5696;SDS011;2873;50.966;7.210;2022-11-20T00:14:57;45.50;;;21.13;;
5696;SDS011;2873;50.966;7.210;2022-11-20T00:17:23;41.10;;;19.08;;
5696;SDS011;2873;50.966;7.210;2022-11-20T00:19:48;28.07;;;14.50;;
5696;SDS011;2873;50.966;7.210;2022-11-20T00:22:14;22.05;;;13.00;;
5696;SDS011;2873;50.966;7.210;2022-11-20T00:24:39;19.80;;;10.70;;
5696;SDS011;2873;50.966;7.210;2022-11-20T00:27:05;26.77;;;13.45;;
5696;SDS011;2873;50.966;7.210;2022-11-20T00:29:30;23.97;;;13.20;;
5696;SDS011;2873;50.966;7.210;2022-11-20T00:31:56;29.65;;;13.98;;
5696;SDS011;2873;50.966;7.210;2022-11-20T00:34:21;19.33;;;11.90;;
5696;SDS011;2873;50.966;7.210;2022-11-20T00:36:47;72.88;;;27.15;;
5696;SDS011;2873;50.966;7.210;2022-11-20T00:39:12;45.57;;;20.77;;
5696;SDS011;2873;50.966;7.210;2022-11-20T00:41:38;27.27;;;13.77;;
5696;SDS011;2873;50.966;7.210;2022-11-20T00:44:03;25.37;;;13.67;;
5696;SDS011;2873;50.966;7.210;2022-11-20T00:46:29;49.50;;;19.80;;
5696;SDS011;2873;50.966;7.210;2022-11-20T00:48:55;80.05;;;26.60;;
5696;SDS011;2873;50.966;7.210;2022-11-20T00:51:21;117.80;;;31.85;;
5696;SDS011;2873;50.966;7.210;2022-11-20T00:53:48;191.60;;;45.45;;
5696;SDS011;2873;50.966;7.210;2022-11-20T00:56:15;158.85;;;40.70;;
5696;SDS011;2873;50.966;7.210;2022-11-20T00:58:43;107.20;;;30.55;;
5696;SDS011;2873;50.966;7.210;2022-11-20T01:01:15;61.07;;;21.50;;
5696;SDS011;2873;50.966;7.210;2022-11-20T01:03:43;38.47;;;16.42;;
5696;SDS011;2873;50.966;7.210;2022-11-20T01:06:11;40.40;;;15.80;;
5696;SDS011;2873;50.966;7.210;2022-11-20T01:08:38;114.80;;;28.25;;
5696;SDS011;2873;50.966;7.210;2022-11-20T01:11:08;270.05;;;56.22;;
5696;SDS011;2873;50.966;7.210;2022-11-20T01:13:38;260.33;;;53.38;;
5696;SDS011;2873;50.966;7.210;2022-11-20T01:16:12;195.50;;;43.40;;
5696;SDS011;2873;50.966;7.210;2022-11-20T01:18:40;214.45;;;47.30;;
5696;SDS011;2873;50.966;7.210;2022-11-20T01:21:09;109.53;;;29.20;;
5696;SDS011;2873;50.966;7.210;2022-11-20T01:23:37;148.73;;;34.42;;
5696;SDS011;2873;50.966;7.210;2022-11-20T01:26:05;162.48;;;38.25;;
5696;SDS011;2873;50.966;7.210;2022-11-20T01:28:33;99.47;;;25.77;;
5696;SDS011;2873;50.966;7.210;2022-11-20T01:30:59;27.75;;;14.10;;
5696;SDS011;2873;50.966;7.210;2022-11-20T01:33:25;24.15;;;11.93;;
5696;SDS011;2873;50.966;7.210;2022-11-20T01:35:51;19.83;;;11.80;;
5696;SDS011;2873;50.966;7.210;2022-11-20T01:38:17;21.00;;;12.40;;
5696;SDS011;2873;50.966;7.210;2022-11-20T01:40:45;15.45;;;10.70;;
5696;SDS011;2873;50.966;7.210;2022-11-20T01:43:18;16.77;;;11.52;;
5696;SDS011;2873;50.966;7.210;2022-11-20T01:46:04;17.60;;;10.10;;
5696;SDS011;2873;50.966;7.210;2022-11-20T01:48:43;16.00;;;10.70;;
5696;SDS011;2873;50.966;7.210;2022-11-20T01:51:16;14.45;;;9.70;;
5696;SDS011;2873;50.966;7.210;2022-11-20T01:53:47;14.85;;;10.02;;
5696;SDS011;2873;50.966;7.210;2022-11-20T01:56:14;16.00;;;10.60;;
5696;SDS011;2873;50.966;7.210;2022-11-20T01:58:42;16.40;;;10.57;;
5696;SDS011;2873;50.966;7.210;2022-11-20T02:01:13;17.63;;;11.13;;
5696;SDS011;2873;50.966;7.210;2022-11-20T02:03:39;16.27;;;10.50;;
5696;SDS011;2873;50.966;7.210;2022-11-20T02:08:52;15.35;;;10.70;;
5696;SDS011;2873;50.966;7.210;2022-11-20T02:11:19;16.10;;;10.50;;
5696;SDS011;2873;50.966;7.210;2022-11-20T02:13:44;16.67;;;11.47;;
5696;SDS011;2873;50.966;7.210;2022-11-20T02:18:42;18.27;;;11.40;;
5696;SDS011;2873;50.966;7.210;2022-11-20T02:21:12;17.42;;;11.35;;
5696;SDS011;2873;50.966;7.210;2022-11-20T02:26:31;16.60;;;11.00;;
5696;SDS011;2873;50.966;7.210;2022-11-20T02:29:00;17.20;;;11.00;;
5696;SDS011;2873;50.966;7.210;2022-11-20T02:31:27;14.47;;;10.30;;
5696;SDS011;2873;50.966;7.210;2022-11-20T02:33:56;15.90;;;10.60;;
5696;SDS011;2873;50.966;7.210;2022-11-20T02:36:23;16.92;;;10.73;;
5696;SDS011;2873;50.966;7.210;2022-11-20T02:38:51;15.75;;;10.65;;
5696;SDS011;2873;50.966;7.210;2022-11-20T02:41:16;18.60;;;11.10;;
5696;SDS011;2873;50.966;7.210;2022-11-20T02:43:42;14.97;;;10.20;;
5696;SDS011;2873;50.966;7.210;2022-11-20T02:46:07;16.42;;;10.90;;
5696;SDS011;2873;50.966;7.210;2022-11-20T02:48:33;16.90;;;10.80;;
5696;SDS011;2873;50.966;7.210;2022-11-20T02:50:59;16.70;;;11.30;;
5696;SDS011;2873;50.966;7.210;2022-11-20T02:53:25;16.35;;;10.90;;
5696;SDS011;2873;50.966;7.210;2022-11-20T02:55:50;18.07;;;11.10;;
5696;SDS011;2873;50.966;7.210;2022-11-20T02:58:16;17.63;;;10.80;;
5696;SDS011;2873;50.966;7.210;2022-11-20T03:00:41;17.57;;;11.17;;
5696;SDS011;2873;50.966;7.210;2022-11-20T03:03:07;17.50;;;10.77;;
5696;SDS011;2873;50.966;7.210;2022-11-20T03:05:32;16.90;;;11.43;;
5696;SDS011;2873;50.966;7.210;2022-11-20T03:07:58;17.03;;;10.60;;
5696;SDS011;2873;50.966;7.210;2022-11-20T03:10:24;17.33;;;10.90;;
5696;SDS011;2873;50.966;7.210;2022-11-20T03:12:55;15.97;;;10.83;;
5696;SDS011;2873;50.966;7.210;2022-11-20T03:15:24;17.15;;;10.70;;
5696;SDS011;2873;50.966;7.210;2022-11-20T03:17:52;16.27;;;11.20;;
5696;SDS011;2873;50.966;7.210;2022-11-20T03:20:19;15.15;;;10.52;;
5696;SDS011;2873;50.966;7.210;2022-11-20T03:22:45;17.35;;;10.77;;
5696;SDS011;2873;50.966;7.210;2022-11-20T03:25:10;16.30;;;11.10;;
5696;SDS011;2873;50.966;7.210;2022-11-20T03:27:36;16.45;;;11.10;;
5696;SDS011;2873;50.966;7.210;2022-11-20T03:30:01;17.47;;;11.07;;
5696;SDS011;2873;50.966;7.210;2022-11-20T03:32:27;17.40;;;11.50;;
5696;SDS011;2873;50.966;7.210;2022-11-20T03:34:52;20.45;;;11.10;;
5696;SDS011;2873;50.966;7.210;2022-11-20T03:37:18;16.77;;;10.47;;
5696;SDS011;2873;50.966;7.210;2022-11-20T03:39:44;17.80;;;10.63;;
5696;SDS011;2873;50.966;7.210;2022-11-20T03:42:09;20.05;;;12.27;;
5696;SDS011;2873;50.966;7.210;2022-11-20T03:44:54;17.38;;;11.40;;
5696;SDS011;2873;50.966;7.210;2022-11-20T03:47:20;18.60;;;11.75;;
5696;SDS011;2873;50.966;7.210;2022-11-20T03:49:45;17.07;;;11.60;;
5696;SDS011;2873;50.966;7.210;2022-11-20T03:52:11;18.83;;;11.27;;
5696;SDS011;2873;50.966;7.210;2022-11-20T03:54:36;17.87;;;11.70;;
5696;SDS011;2873;50.966;7.210;2022-11-20T03:57:02;18.53;;;12.13;;
5696;SDS011;2873;50.966;7.210;2022-11-20T03:59:27;16.57;;;11.37;;
5696;SDS011;2873;50.966;7.210;2022-11-20T04:01:53;19.73;;;12.10;;
5696;SDS011;2873;50.966;7.210;2022-11-20T04:04:18;18.57;;;12.13;;
5696;SDS011;2873;50.966;7.210;2022-11-20T04:06:44;16.90;;;11.30;;
5696;SDS011;2873;50.966;7.210;2022-11-20T04:09:09;18.25;;;11.40;;
5696;SDS011;2873;50.966;7.210;2022-11-20T04:11:36;21.60;;;12.23;;
5696;SDS011;2873;50.966;7.210;2022-11-20T04:14:03;19.58;;;11.90;;
5696;SDS011;2873;50.966;7.210;2022-11-20T04:16:31;21.83;;;11.40;;
5696;SDS011;2873;50.966;7.210;2022-11-20T04:18:59;20.75;;;11.80;;
5696;SDS011;2873;50.966;7.210;2022-11-20T04:21:26;22.20;;;13.93;;
5696;SDS011;2873;50.966;7.210;2022-11-20T04:23:52;20.50;;;13.60;;
5696;SDS011;2873;50.966;7.210;2022-11-20T04:26:19;20.70;;;12.97;;
5696;SDS011;2873;50.966;7.210;2022-11-20T04:28:45;20.87;;;12.97;;
5696;SDS011;2873;50.966;7.210;2022-11-20T04:31:12;19.30;;;13.10;;
5696;SDS011;2873;50.966;7.210;2022-11-20T04:33:42;23.33;;;12.93;;
5696;SDS011;2873;50.966;7.210;2022-11-20T04:38:42;18.52;;;12.20;;
5696;SDS011;2873;50.966;7.210;2022-11-20T04:41:16;19.48;;;11.90;;
5696;SDS011;2873;50.966;7.210;2022-11-20T04:43:50;21.30;;;13.20;;
5696;SDS011;2873;50.966;7.210;2022-11-20T04:46:17;20.70;;;13.10;;
5696;SDS011;2873;50.966;7.210;2022-11-20T04:48:44;21.70;;;13.40;;
5696;SDS011;2873;50.966;7.210;2022-11-20T04:51:10;19.07;;;12.20;;
5696;SDS011;2873;50.966;7.210;2022-11-20T04:53:36;19.43;;;11.83;;
5696;SDS011;2873;50.966;7.210;2022-11-20T04:56:02;19.98;;;11.95;;
5696;SDS011;2873;50.966;7.210;2022-11-20T04:58:29;19.90;;;12.10;;
5696;SDS011;2873;50.966;7.210;2022-11-20T05:01:02;19.10;;;11.47;;
5696;SDS011;2873;50.966;7.210;2022-11-20T05:03:27;19.63;;;12.27;;
5696;SDS011;2873;50.966;7.210;2022-11-20T05:05:53;18.85;;;11.70;;
5696;SDS011;2873;50.966;7.210;2022-11-20T05:08:19;18.43;;;11.60;;
5696;SDS011;2873;50.966;7.210;2022-11-20T05:10:44;21.10;;;11.07;;
5696;SDS011;2873;50.966;7.210;2022-11-20T05:13:10;19.87;;;12.43;;
5696;SDS011;2873;50.966;7.210;2022-11-20T05:15:35;19.17;;;11.73;;
5696;SDS011;2873;50.966;7.210;2022-11-20T05:18:01;18.20;;;11.97;;
5696;SDS011;2873;50.966;7.210;2022-11-20T05:20:26;18.53;;;11.50;;
5696;SDS011;2873;50.966;7.210;2022-11-20T05:22:52;19.80;;;11.73;;
5696;SDS011;2873;50.966;7.210;2022-11-20T05:25:17;19.38;;;11.82;;
5696;SDS011;2873;50.966;7.210;2022-11-20T05:27:43;19.00;;;12.33;;
5696;SDS011;2873;50.966;7.210;2022-11-20T05:30:08;18.60;;;12.20;;
5696;SDS011;2873;50.966;7.210;2022-11-20T05:32:34;19.05;;;11.70;;
5696;SDS011;2873;50.966;7.210;2022-11-20T05:35:00;16.80;;;11.30;;
5696;SDS011;2873;50.966;7.210;2022-11-20T05:37:25;18.15;;;12.38;;
5696;SDS011;2873;50.966;7.210;2022-11-20T05:39:51;20.20;;;12.87;;
5696;SDS011;2873;50.966;7.210;2022-11-20T05:42:16;22.00;;;12.80;;
5696;SDS011;2873;50.966;7.210;2022-11-20T05:45:03;21.90;;;13.60;;
5696;SDS011;2873;50.966;7.210;2022-11-20T05:47:33;22.20;;;12.80;;
5696;SDS011;2873;50.966;7.210;2022-11-20T05:49:59;20.77;;;12.98;;
5696;SDS011;2873;50.966;7.210;2022-11-20T05:52:27;22.70;;;15.38;;
5696;SDS011;2873;50.966;7.210;2022-11-20T05:54:53;23.07;;;15.17;;
5696;SDS011;2873;50.966;7.210;2022-11-20T05:57:19;29.70;;;17.07;;
5696;SDS011;2873;50.966;7.210;2022-11-20T05:59:44;24.60;;;16.38;;
5696;SDS011;2873;50.966;7.210;2022-11-20T06:02:10;21.30;;;13.70;;
5696;SDS011;2873;50.966;7.210;2022-11-20T06:04:35;21.33;;;13.10;;
5696;SDS011;2873;50.966;7.210;2022-11-20T06:07:01;20.90;;;13.10;;
5696;SDS011;2873;50.966;7.210;2022-11-20T06:09:26;22.77;;;14.10;;
5696;SDS011;2873;50.966;7.210;2022-11-20T06:11:52;20.47;;;12.83;;
5696;SDS011;2873;50.966;7.210;2022-11-20T06:14:18;23.33;;;13.73;;
5696;SDS011;2873;50.966;7.210;2022-11-20T06:16:43;24.03;;;13.83;;
5696;SDS011;2873;50.966;7.210;2022-11-20T06:19:09;21.17;;;12.90;;
5696;SDS011;2873;50.966;7.210;2022-11-20T06:21:35;20.70;;;13.15;;
5696;SDS011;2873;50.966;7.210;2022-11-20T06:24:00;21.20;;;13.30;;
5696;SDS011;2873;50.966;7.210;2022-11-20T06:26:26;20.33;;;12.30;;
5696;SDS011;2873;50.966;7.210;2022-11-20T06:28:53;24.03;;;13.20;;
5696;SDS011;2873;50.966;7.210;2022-11-20T06:31:20;22.42;;;12.80;;
5696;SDS011;2873;50.966;7.210;2022-11-20T06:33:47;20.92;;;12.50;;
5696;SDS011;2873;50.966;7.210;2022-11-20T06:36:13;23.45;;;13.43;;
5696;SDS011;2873;50.966;7.210;2022-11-20T06:38:40;23.15;;;12.50;;
5696;SDS011;2873;50.966;7.210;2022-11-20T06:41:07;18.60;;;12.60;;
5696;SDS011;2873;50.966;7.210;2022-11-20T06:43:37;23.67;;;12.90;;
5696;SDS011;2873;50.966;7.210;2022-11-20T06:46:03;20.23;;;12.65;;
5696;SDS011;2873;50.966;7.210;2022-11-20T06:48:29;23.02;;;12.98;;
5696;SDS011;2873;50.966;7.210;2022-11-20T06:50:55;24.75;;;13.25;;
5696;SDS011;2873;50.966;7.210;2022-11-20T06:53:21;23.02;;;13.02;;
5696;SDS011;2873;50.966;7.210;2022-11-20T06:55:48;23.75;;;13.23;;
5696;SDS011;2873;50.966;7.210;2022-11-20T06:58:16;22.70;;;13.85;;
5696;SDS011;2873;50.966;7.210;2022-11-20T07:00:43;20.75;;;12.70;;
5696;SDS011;2873;50.966;7.210;2022-11-20T07:03:09;19.83;;;12.38;;
5696;SDS011;2873;50.966;7.210;2022-11-20T07:05:36;21.70;;;12.73;;
5696;SDS011;2873;50.966;7.210;2022-11-20T07:08:03;20.10;;;12.68;;
5696;SDS011;2873;50.966;7.210;2022-11-20T07:10:30;22.63;;;13.13;;
5696;SDS011;2873;50.966;7.210;2022-11-20T07:12:55;20.27;;;12.23;;
5696;SDS011;2873;50.966;7.210;2022-11-20T07:15:22;18.70;;;12.30;;
5696;SDS011;2873;50.966;7.210;2022-11-20T07:17:48;20.90;;;12.50;;
5696;SDS011;2873;50.966;7.210;2022-11-20T07:20:14;19.85;;;11.65;;
5696;SDS011;2873;50.966;7.210;2022-11-20T07:22:39;22.58;;;11.30;;
5696;SDS011;2873;50.966;7.210;2022-11-20T07:25:05;22.93;;;13.40;;
5696;SDS011;2873;50.966;7.210;2022-11-20T07:27:31;19.73;;;12.60;;
5696;SDS011;2873;50.966;7.210;2022-11-20T07:29:57;20.80;;;12.67;;
5696;SDS011;2873;50.966;7.210;2022-11-20T07:32:22;22.02;;;14.00;;
5696;SDS011;2873;50.966;7.210;2022-11-20T07:34:48;22.93;;;12.40;;
5696;SDS011;2873;50.966;7.210;2022-11-20T07:37:14;21.08;;;12.85;;
5696;SDS011;2873;50.966;7.210;2022-11-20T07:39:40;22.55;;;12.70;;
5696;SDS011;2873;50.966;7.210;2022-11-20T07:42:06;18.45;;;11.88;;
5696;SDS011;2873;50.966;7.210;2022-11-20T07:44:32;21.70;;;12.73;;
5696;SDS011;2873;50.966;7.210;2022-11-20T07:46:57;19.47;;;11.90;;
5696;SDS011;2873;50.966;7.210;2022-11-20T07:49:23;21.20;;;13.98;;
5696;SDS011;2873;50.966;7.210;2022-11-20T07:51:52;21.08;;;12.63;;
5696;SDS011;2873;50.966;7.210;2022-11-20T07:54:20;19.23;;;12.23;;
5696;SDS011;2873;50.966;7.210;2022-11-20T07:56:46;22.25;;;12.85;;
5696;SDS011;2873;50.966;7.210;2022-11-20T07:59:13;22.33;;;13.77;;
5696;SDS011;2873;50.966;7.210;2022-11-20T08:01:39;21.13;;;13.80;;
5696;SDS011;2873;50.966;7.210;2022-11-20T08:04:05;22.75;;;14.30;;
5696;SDS011;2873;50.966;7.210;2022-11-20T08:06:30;20.63;;;12.70;;
5696;SDS011;2873;50.966;7.210;2022-11-20T08:08:56;20.40;;;12.90;;
5696;SDS011;2873;50.966;7.210;2022-11-20T08:11:22;18.53;;;12.33;;
5696;SDS011;2873;50.966;7.210;2022-11-20T08:14:06;20.38;;;12.30;;
5696;SDS011;2873;50.966;7.210;2022-11-20T08:16:41;20.92;;;12.50;;
5696;SDS011;2873;50.966;7.210;2022-11-20T08:19:12;22.98;;;12.50;;
5696;SDS011;2873;50.966;7.210;2022-11-20T08:21:39;19.03;;;12.30;;
5696;SDS011;2873;50.966;7.210;2022-11-20T08:24:05;21.88;;;12.70;;
5696;SDS011;2873;50.966;7.210;2022-11-20T08:26:31;21.70;;;13.35;;
5696;SDS011;2873;50.966;7.210;2022-11-20T08:28:56;33.23;;;18.87;;
5696;SDS011;2873;50.966;7.210;2022-11-20T08:31:23;27.98;;;16.63;;
5696;SDS011;2873;50.966;7.210;2022-11-20T08:33:50;24.20;;;14.82;;
5696;SDS011;2873;50.966;7.210;2022-11-20T08:36:16;25.50;;;15.85;;
5696;SDS011;2873;50.966;7.210;2022-11-20T08:38:46;25.23;;;15.67;;
5696;SDS011;2873;50.966;7.210;2022-11-20T08:41:21;26.33;;;16.03;;
5696;SDS011;2873;50.966;7.210;2022-11-20T08:46:24;27.13;;;15.27;;
5696;SDS011;2873;50.966;7.210;2022-11-20T08:48:50;25.65;;;15.85;;
5696;SDS011;2873;50.966;7.210;2022-11-20T08:51:16;22.75;;;14.40;;
5696;SDS011;2873;50.966;7.210;2022-11-20T08:53:43;25.13;;;14.10;;
5696;SDS011;2873;50.966;7.210;2022-11-20T08:56:08;23.90;;;14.07;;
5696;SDS011;2873;50.966;7.210;2022-11-20T08:58:35;24.42;;;14.45;;
5696;SDS011;2873;50.966;7.210;2022-11-20T09:01:01;26.48;;;15.32;;
5696;SDS011;2873;50.966;7.210;2022-11-20T09:03:26;24.70;;;15.25;;
5696;SDS011;2873;50.966;7.210;2022-11-20T09:06:05;25.10;;;14.47;;
5696;SDS011;2873;50.966;7.210;2022-11-20T09:08:32;23.10;;;14.10;;
5696;SDS011;2873;50.966;7.210;2022-11-20T09:10:58;24.15;;;14.40;;
5696;SDS011;2873;50.966;7.210;2022-11-20T09:13:25;24.65;;;13.80;;
5696;SDS011;2873;50.966;7.210;2022-11-20T09:15:58;19.90;;;13.02;;
5696;SDS011;2873;50.966;7.210;2022-11-20T09:18:31;21.77;;;13.33;;
5696;SDS011;2873;50.966;7.210;2022-11-20T09:21:01;20.65;;;12.40;;
5696;SDS011;2873;50.966;7.210;2022-11-20T09:23:33;21.42;;;14.00;;
5696;SDS011;2873;50.966;7.210;2022-11-20T09:26:07;20.45;;;13.65;;
5696;SDS011;2873;50.966;7.210;2022-11-20T09:28:35;23.15;;;13.55;;
5696;SDS011;2873;50.966;7.210;2022-11-20T09:31:00;19.57;;;12.60;;
5696;SDS011;2873;50.966;7.210;2022-11-20T09:33:29;20.87;;;12.67;;
5696;SDS011;2873;50.966;7.210;2022-11-20T09:35:55;20.37;;;12.50;;
5696;SDS011;2873;50.966;7.210;2022-11-20T09:38:20;20.77;;;12.83;;
5696;SDS011;2873;50.966;7.210;2022-11-20T09:41:05;18.60;;;11.80;;
5696;SDS011;2873;50.966;7.210;2022-11-20T09:46:12;21.02;;;12.77;;
5696;SDS011;2873;50.966;7.210;2022-11-20T09:48:48;21.08;;;12.00;;
5696;SDS011;2873;50.966;7.210;2022-11-20T09:56:39;20.17;;;12.70;;
5696;SDS011;2873;50.966;7.210;2022-11-20T09:59:13;19.65;;;12.43;;
5696;SDS011;2873;50.966;7.210;2022-11-20T10:01:46;21.08;;;13.57;;
5696;SDS011;2873;50.966;7.210;2022-11-20T10:04:13;18.60;;;12.40;;
5696;SDS011;2873;50.966;7.210;2022-11-20T10:06:55;19.65;;;12.75;;
5696;SDS011;2873;50.966;7.210;2022-11-20T10:09:31;20.80;;;13.05;;
5696;SDS011;2873;50.966;7.210;2022-11-20T10:14:38;19.60;;;12.93;;
5696;SDS011;2873;50.966;7.210;2022-11-20T10:17:21;18.95;;;11.60;;
5696;SDS011;2873;50.966;7.210;2022-11-20T10:20:39;18.05;;;11.70;;
5696;SDS011;2873;50.966;7.210;2022-11-20T10:26:18;17.20;;;11.27;;
5696;SDS011;2873;50.966;7.210;2022-11-20T10:31:51;17.88;;;11.00;;
5696;SDS011;2873;50.966;7.210;2022-11-20T10:37:16;15.52;;;10.13;;
5696;SDS011;2873;50.966;7.210;2022-11-20T10:39:55;16.90;;;10.65;;
5696;SDS011;2873;50.966;7.210;2022-11-20T10:42:43;17.95;;;11.05;;
5696;SDS011;2873;50.966;7.210;2022-11-20T10:47:48;17.15;;;10.60;;
5696;SDS011;2873;50.966;7.210;2022-11-20T10:50:16;18.20;;;11.20;;
5696;SDS011;2873;50.966;7.210;2022-11-20T10:57:55;22.38;;;13.30;;
5696;SDS011;2873;50.966;7.210;2022-11-20T11:00:44;27.20;;;14.88;;
5696;SDS011;2873;50.966;7.210;2022-11-20T11:03:28;25.17;;;14.90;;
5696;SDS011;2873;50.966;7.210;2022-11-20T11:06:09;23.67;;;14.15;;
5696;SDS011;2873;50.966;7.210;2022-11-20T11:08:48;29.55;;;15.63;;
5696;SDS011;2873;50.966;7.210;2022-11-20T11:11:20;27.00;;;15.57;;
5696;SDS011;2873;50.966;7.210;2022-11-20T11:16:53;28.77;;;15.82;;
5696;SDS011;2873;50.966;7.210;2022-11-20T11:19:20;28.17;;;16.10;;
5696;SDS011;2873;50.966;7.210;2022-11-20T11:21:47;26.90;;;16.50;;
5696;SDS011;2873;50.966;7.210;2022-11-20T11:24:47;27.83;;;16.50;;
5696;SDS011;2873;50.966;7.210;2022-11-20T11:27:16;26.95;;;16.15;;
5696;SDS011;2873;50.966;7.210;2022-11-20T11:29:42;28.65;;;16.58;;
5696;SDS011;2873;50.966;7.210;2022-11-20T11:32:12;23.60;;;14.93;;
5696;SDS011;2873;50.966;7.210;2022-11-20T11:34:58;25.47;;;15.50;;
5696;SDS011;2873;50.966;7.210;2022-11-20T11:37:32;27.58;;;15.88;;
5696;SDS011;2873;50.966;7.210;2022-11-20T11:40:00;26.73;;;15.95;;
5696;SDS011;2873;50.966;7.210;2022-11-20T11:42:27;27.60;;;15.90;;
5696;SDS011;2873;50.966;7.210;2022-11-20T11:44:54;26.48;;;15.35;;
5696;SDS011;2873;50.966;7.210;2022-11-20T11:47:37;27.73;;;16.52;;
5696;SDS011;2873;50.966;7.210;2022-11-20T11:52:36;28.15;;;16.25;;
5696;SDS011;2873;50.966;7.210;2022-11-20T11:55:29;29.58;;;15.30;;
5696;SDS011;2873;50.966;7.210;2022-11-20T11:58:11;27.13;;;15.80;;
5696;SDS011;2873;50.966;7.210;2022-11-20T12:01:00;29.27;;;16.53;;
5696;SDS011;2873;50.966;7.210;2022-11-20T12:03:37;25.52;;;15.23;;
5696;SDS011;2873;50.966;7.210;2022-11-20T12:06:09;28.55;;;15.75;;
5696;SDS011;2873;50.966;7.210;2022-11-20T12:11:10;29.20;;;16.52;;
5696;SDS011;2873;50.966;7.210;2022-11-20T12:13:58;27.83;;;16.15;;
5696;SDS011;2873;50.966;7.210;2022-11-20T12:16:44;28.55;;;16.70;;
5696;SDS011;2873;50.966;7.210;2022-11-20T12:19:10;28.95;;;16.98;;
5696;SDS011;2873;50.966;7.210;2022-11-20T12:21:43;30.77;;;16.70;;
5696;SDS011;2873;50.966;7.210;2022-11-20T12:27:39;29.17;;;15.80;;
5696;SDS011;2873;50.966;7.210;2022-11-20T12:30:25;26.85;;;15.93;;
5696;SDS011;2873;50.966;7.210;2022-11-20T12:38:52;27.67;;;15.50;;
5696;SDS011;2873;50.966;7.210;2022-11-20T12:41:40;27.60;;;16.88;;
5696;SDS011;2873;50.966;7.210;2022-11-20T12:47:55;29.17;;;16.40;;
5696;SDS011;2873;50.966;7.210;2022-11-20T12:53:04;28.08;;;15.45;;
5696;SDS011;2873;50.966;7.210;2022-11-20T12:55:36;25.75;;;15.40;;
5696;SDS011;2873;50.966;7.210;2022-11-20T12:58:25;26.05;;;15.57;;
5696;SDS011;2873;50.966;7.210;2022-11-20T13:01:20;24.85;;;15.40;;
5696;SDS011;2873;50.966;7.210;2022-11-20T13:07:10;26.63;;;15.30;;
5696;SDS011;2873;50.966;7.210;2022-11-20T13:09:45;26.30;;;15.15;;
5696;SDS011;2873;50.966;7.210;2022-11-20T13:12:15;25.27;;;14.70;;
5696;SDS011;2873;50.966;7.210;2022-11-20T13:17:32;25.70;;;15.20;;
5696;SDS011;2873;50.966;7.210;2022-11-20T13:20:16;23.77;;;14.50;;
5696;SDS011;2873;50.966;7.210;2022-11-20T13:22:47;24.08;;;14.63;;
5696;SDS011;2873;50.966;7.210;2022-11-20T13:27:53;28.92;;;15.75;;
5696;SDS011;2873;50.966;7.210;2022-11-20T13:30:24;25.48;;;14.48;;
5696;SDS011;2873;50.966;7.210;2022-11-20T13:33:03;25.00;;;15.17;;
5696;SDS011;2873;50.966;7.210;2022-11-20T13:36:01;27.97;;;15.90;;
5696;SDS011;2873;50.966;7.210;2022-11-20T13:38:46;26.13;;;15.73;;
5696;SDS011;2873;50.966;7.210;2022-11-20T13:41:23;27.83;;;15.82;;
5696;SDS011;2873;50.966;7.210;2022-11-20T13:44:38;26.25;;;15.15;;
5696;SDS011;2873;50.966;7.210;2022-11-20T13:47:03;28.98;;;15.63;;
5696;SDS011;2873;50.966;7.210;2022-11-20T13:49:33;27.65;;;15.30;;
5696;SDS011;2873;50.966;7.210;2022-11-20T14:00:25;29.48;;;16.25;;
5696;SDS011;2873;50.966;7.210;2022-11-20T14:03:06;30.50;;;17.08;;
5696;SDS011;2873;50.966;7.210;2022-11-20T14:05:36;27.05;;;15.15;;
5696;SDS011;2873;50.966;7.210;2022-11-20T14:08:04;24.80;;;14.85;;
5696;SDS011;2873;50.966;7.210;2022-11-20T14:10:36;28.75;;;15.20;;
5696;SDS011;2873;50.966;7.210;2022-11-20T14:13:37;25.77;;;14.60;;
5696;SDS011;2873;50.966;7.210;2022-11-20T14:15:56;28.73;;;15.77;;
5696;SDS011;2873;50.966;7.210;2022-11-20T14:18:24;34.17;;;17.85;;
5696;SDS011;2873;50.966;7.210;2022-11-20T14:20:51;28.15;;;16.25;;
5696;SDS011;2873;50.966;7.210;2022-11-20T14:23:27;26.90;;;15.68;;
5696;SDS011;2873;50.966;7.210;2022-11-20T14:25:54;29.60;;;15.63;;
5696;SDS011;2873;50.966;7.210;2022-11-20T14:28:27;33.57;;;17.53;;
5696;SDS011;2873;50.966;7.210;2022-11-20T14:30:54;35.08;;;18.85;;
5696;SDS011;2873;50.966;7.210;2022-11-20T14:33:21;34.72;;;18.60;;
5696;SDS011;2873;50.966;7.210;2022-11-20T14:35:50;33.17;;;19.45;;
5696;SDS011;2873;50.966;7.210;2022-11-20T14:38:19;28.27;;;16.23;;
5696;SDS011;2873;50.966;7.210;2022-11-20T14:40:53;31.90;;;19.87;;
5696;SDS011;2873;50.966;7.210;2022-11-20T14:43:28;36.05;;;20.23;;
5696;SDS011;2873;50.966;7.210;2022-11-20T14:48:38;34.07;;;19.23;;
5696;SDS011;2873;50.966;7.210;2022-11-20T14:51:26;35.55;;;18.73;;
5696;SDS011;2873;50.966;7.210;2022-11-20T14:53:53;32.78;;;18.42;;
5696;SDS011;2873;50.966;7.210;2022-11-20T14:56:22;28.40;;;16.50;;
5696;SDS011;2873;50.966;7.210;2022-11-20T14:58:58;30.63;;;17.30;;
5696;SDS011;2873;50.966;7.210;2022-11-20T15:01:27;30.55;;;17.67;;
5696;SDS011;2873;50.966;7.210;2022-11-20T15:04:04;30.53;;;16.97;;
5696;SDS011;2873;50.966;7.210;2022-11-20T15:06:32;32.83;;;17.90;;
5696;SDS011;2873;50.966;7.210;2022-11-20T15:08:58;76.93;;;34.97;;
5696;SDS011;2873;50.966;7.210;2022-11-20T15:11:34;39.50;;;23.53;;
5696;SDS011;2873;50.966;7.210;2022-11-20T15:14:02;27.60;;;16.63;;
5696;SDS011;2873;50.966;7.210;2022-11-20T15:16:30;33.92;;;20.90;;
5696;SDS011;2873;50.966;7.210;2022-11-20T15:18:56;35.53;;;21.33;;
5696;SDS011;2873;50.966;7.210;2022-11-20T15:21:22;47.17;;;24.90;;
5696;SDS011;2873;50.966;7.210;2022-11-20T15:23:47;44.70;;;24.60;;
5696;SDS011;2873;50.966;7.210;2022-11-20T15:26:14;69.55;;;33.78;;
5696;SDS011;2873;50.966;7.210;2022-11-20T15:28:47;37.97;;;20.07;;
5696;SDS011;2873;50.966;7.210;2022-11-20T15:31:15;43.10;;;23.85;;
5696;SDS011;2873;50.966;7.210;2022-11-20T15:33:43;41.88;;;22.15;;
5696;SDS011;2873;50.966;7.210;2022-11-20T15:36:09;34.92;;;18.73;;
5696;SDS011;2873;50.966;7.210;2022-11-20T15:38:35;36.83;;;18.92;;
5696;SDS011;2873;50.966;7.210;2022-11-20T15:41:00;35.78;;;17.77;;
5696;SDS011;2873;50.966;7.210;2022-11-20T15:43:26;28.50;;;15.93;;
5696;SDS011;2873;50.966;7.210;2022-11-20T15:46:25;26.27;;;15.10;;
5696;SDS011;2873;50.966;7.210;2022-11-20T15:48:51;32.40;;;16.52;;
5696;SDS011;2873;50.966;7.210;2022-11-20T15:51:32;25.83;;;15.68;;
5696;SDS011;2873;50.966;7.210;2022-11-20T15:53:59;26.30;;;15.13;;
5696;SDS011;2873;50.966;7.210;2022-11-20T15:56:25;27.38;;;13.88;;
5696;SDS011;2873;50.966;7.210;2022-11-20T15:58:51;25.52;;;13.73;;
5696;SDS011;2873;50.966;7.210;2022-11-20T16:01:17;22.70;;;12.80;;
5696;SDS011;2873;50.966;7.210;2022-11-20T16:03:45;21.15;;;12.10;;
5696;SDS011;2873;50.966;7.210;2022-11-20T16:06:11;20.73;;;12.10;;
5696;SDS011;2873;50.966;7.210;2022-11-20T16:08:36;20.65;;;12.50;;
5696;SDS011;2873;50.966;7.210;2022-11-20T16:11:02;24.63;;;12.75;;
5696;SDS011;2873;50.966;7.210;2022-11-20T16:13:28;25.35;;;13.05;;
5696;SDS011;2873;50.966;7.210;2022-11-20T16:16:22;23.17;;;12.30;;
5696;SDS011;2873;50.966;7.210;2022-11-20T16:18:55;24.15;;;12.60;;
5696;SDS011;2873;50.966;7.210;2022-11-20T16:21:20;21.27;;;11.77;;
5696;SDS011;2873;50.966;7.210;2022-11-20T16:23:52;20.23;;;12.25;;
5696;SDS011;2873;50.966;7.210;2022-11-20T16:26:17;21.27;;;12.25;;